Time;durP1;ratioP1;P1;durP2;ratioP2;P2;SDS_P1;SDS_P2;PMS_P1;PMS_P2;Temp;Humidity;BMP_temperature;BMP_pressure;BME280_temperature;BME280_humidity;BME280_pressure;Samples;Min_cycle;Max_cycle;Signal;HPM_P1;HPM_P2
2021/06/12 00:01:50;;;;;;;15.10;13.90;;;16.80;99.90;;;17.69;80.43;98213.00;5225230;28;20235;-61
2021/06/12 00:04:23;;;;;;;16.10;14.90;;;16.70;99.90;;;17.65;80.88;98205.94;5225186;28;20289;-59
2021/06/12 00:06:57;;;;;;;16.10;14.70;;;16.70;99.90;;;17.65;81.39;98211.13;5207978;28;20224;-61
2021/06/12 00:09:30;;;;;;;16.42;15.13;;;16.70;99.90;;;17.63;81.35;98217.97;5227399;28;20211;-61
2021/06/12 00:12:03;;;;;;;15.77;14.55;;;16.70;99.90;;;17.56;81.43;98215.13;5227338;28;20653;-61
2021/06/12 00:14:37;;;;;;;15.18;14.13;;;16.60;99.90;;;17.59;80.96;98216.06;5226615;28;20581;-61
2021/06/12 00:17:10;;;;;;;15.43;14.20;;;16.60;99.90;;;17.53;81.06;98215.03;5227385;28;20598;-61
2021/06/12 00:19:42;;;;;;;15.23;14.18;;;16.60;99.90;;;17.56;81.02;98211.69;5227283;28;20197;-59
2021/06/12 00:22:15;;;;;;;15.88;14.77;;;16.60;99.90;;;17.55;80.72;98207.34;5227571;28;20562;-61
2021/06/12 00:24:48;;;;;;;15.40;14.25;;;16.50;99.90;;;17.47;80.90;98207.06;5222354;28;20681;-61
2021/06/12 00:27:20;;;;;;;15.52;14.32;;;16.50;99.90;;;17.44;80.81;98203.50;5225269;28;20221;-61
2021/06/12 00:29:54;;;;;;;15.27;14.00;;;16.50;99.90;;;17.42;80.98;98203.44;5221040;28;20347;-61
2021/06/12 00:32:27;;;;;;;15.10;13.90;;;16.40;99.90;;;17.37;82.25;98204.09;5223965;28;20199;-61
2021/06/12 00:34:59;;;;;;;15.63;14.25;;;16.40;99.90;;;17.40;82.02;98206.78;5225881;28;20201;-61
2021/06/12 00:37:32;;;;;;;16.55;15.15;;;16.50;99.90;;;17.37;82.56;98206.66;5225575;28;20204;-60
2021/06/12 00:40:08;;;;;;;15.07;13.98;;;16.50;99.90;;;17.37;81.89;98205.00;5227234;28;20237;-61
2021/06/12 00:42:41;;;;;;;15.32;14.27;;;16.40;99.90;;;17.40;81.88;98205.09;5225952;28;20669;-61
2021/06/12 00:45:18;;;;;;;14.55;13.45;;;16.40;99.90;;;17.35;82.32;98204.06;5206193;28;20206;-62
2021/06/12 00:47:53;;;;;;;16.02;14.82;;;16.50;99.90;;;17.33;81.54;98197.94;5222055;28;20250;-61
2021/06/12 00:50:29;;;;;;;16.50;15.13;;;16.40;99.90;;;17.23;81.53;98194.16;5227104;28;20255;-62
2021/06/12 00:53:02;;;;;;;15.50;14.30;;;16.30;99.90;;;17.10;82.89;98194.53;5225301;28;20698;-61
2021/06/12 00:55:35;;;;;;;15.30;14.20;;;16.30;99.90;;;17.11;82.82;98189.44;5213687;28;20224;-62
2021/06/12 00:58:10;;;;;;;15.40;14.20;;;16.30;99.90;;;17.14;82.15;98196.41;5225143;28;20303;-61
2021/06/12 01:00:44;;;;;;;14.98;13.98;;;16.30;99.90;;;17.11;82.59;98194.59;5226428;28;20207;-61
2021/06/12 01:03:17;;;;;;;15.52;14.30;;;16.20;99.90;;;17.08;82.90;98189.31;5225374;28;20776;-61
2021/06/12 01:05:50;;;;;;;15.05;13.88;;;16.20;99.90;;;17.08;82.98;98186.72;5226073;28;20225;-61
2021/06/12 01:08:23;;;;;;;14.65;13.55;;;16.20;99.90;;;17.08;82.53;98185.81;5225881;28;21428;-59
2021/06/12 01:10:55;;;;;;;15.05;13.95;;;16.10;99.90;;;17.06;82.24;98188.38;5226152;28;20196;-61
2021/06/12 01:13:38;;;;;;;15.07;13.98;;;16.10;99.90;;;17.01;81.83;98183.84;5224854;28;20221;-62
2021/06/12 01:16:20;;;;;;;15.27;14.13;;;16.10;99.90;;;16.97;82.10;98172.53;5222728;28;20625;-61
2021/06/12 01:18:54;;;;;;;15.15;14.05;;;16.00;99.90;;;16.86;82.43;98174.72;5209066;28;20197;-61
2021/06/12 01:21:34;;;;;;;16.25;14.95;;;15.90;99.90;;;16.75;82.52;98176.00;5224258;28;20197;-61
2021/06/12 01:24:35;;;;;;;16.00;14.88;;;15.80;99.90;;;16.70;83.19;98176.63;5225019;28;20699;-61
2021/06/12 01:27:37;;;;;;;15.68;14.48;;;15.80;99.90;;;16.64;83.47;98178.16;5225676;28;20227;-61
2021/06/12 01:30:17;;;;;;;16.10;14.68;;;15.70;99.90;;;16.66;84.34;98176.53;5205597;28;20215;-59
2021/06/12 01:32:54;;;;;;;16.42;15.13;;;15.80;99.90;;;16.68;84.06;98173.97;5224291;28;20189;-61
2021/06/12 01:35:31;;;;;;;16.15;14.95;;;15.80;99.90;;;16.71;83.21;98173.22;5225741;28;20236;-59
2021/06/12 01:38:06;;;;;;;15.73;14.48;;;15.70;99.90;;;16.69;83.08;98174.88;5226239;28;20211;-61
2021/06/12 01:40:43;;;;;;;16.23;14.98;;;15.70;99.90;;;16.64;83.83;98178.16;5225171;28;20193;-61
2021/06/12 01:43:18;;;;;;;16.48;15.15;;;15.80;99.90;;;16.63;83.57;98176.41;5224001;28;20195;-62
2021/06/12 01:45:52;;;;;;;16.90;15.60;;;15.70;99.90;;;16.55;85.24;98172.66;5225718;28;20225;-60
2021/06/12 01:48:26;;;;;;;15.43;14.32;;;15.70;99.90;;;16.59;83.85;98171.94;5225930;28;20245;-61
2021/06/12 01:51:00;;;;;;;15.73;14.57;;;15.70;99.90;;;16.57;83.27;98175.28;5225408;28;20197;-61
2021/06/12 01:53:33;;;;;;;15.55;14.40;;;15.60;99.90;;;16.56;83.61;98165.78;5224759;28;20220;-60
2021/06/12 01:56:10;;;;;;;15.70;14.50;;;15.60;99.90;;;16.47;84.11;98168.88;5225099;28;20223;-61
2021/06/12 01:58:44;;;;;;;16.15;14.85;;;15.60;99.90;;;16.51;84.25;98169.88;5225551;28;20207;-61
2021/06/12 02:01:19;;;;;;;15.60;14.30;;;15.60;99.90;;;16.50;84.02;98169.00;5224609;28;20202;-61
2021/06/12 02:03:53;;;;;;;16.75;15.50;;;15.60;99.90;;;16.45;84.69;98175.66;5220718;28;20196;-61
2021/06/12 02:06:27;;;;;;;16.98;15.68;;;15.60;99.90;;;16.46;84.36;98167.13;5215878;28;20695;-61
2021/06/12 02:09:00;;;;;;;17.10;15.70;;;15.60;99.90;;;16.46;83.72;98167.13;5225353;28;20211;-61
2021/06/12 02:11:33;;;;;;;16.80;15.40;;;15.50;99.90;;;16.47;84.84;98165.44;5217827;28;20200;-59
2021/06/12 02:14:08;;;;;;;17.75;16.40;;;15.60;99.90;;;16.46;85.58;98171.41;5213831;28;20231;-61
2021/06/12 02:16:43;;;;;;;18.30;16.80;;;15.60;99.90;;;16.44;85.38;98174.81;5225237;28;20226;-61
2021/06/12 02:19:17;;;;;;;17.15;15.88;;;15.60;99.90;;;16.46;85.01;98177.44;5224562;28;20212;-60
2021/06/12 02:21:50;;;;;;;17.42;15.88;;;15.60;99.90;;;16.44;85.59;98174.81;5225645;28;20209;-60
2021/06/12 02:24:23;;;;;;;16.98;15.68;;;15.60;99.90;;;16.44;84.92;98176.50;5214032;28;20197;-61
2021/06/12 02:26:58;;;;;;;17.13;15.80;;;15.60;99.90;;;16.46;84.41;98177.44;5218294;28;20216;-61
2021/06/12 02:29:30;;;;;;;15.88;14.68;;;15.60;99.90;;;16.39;84.47;98178.03;5222282;28;20197;-61
2021/06/12 02:32:07;;;;;;;17.35;15.95;;;15.50;99.90;;;16.38;83.84;98181.44;5224908;28;20231;-60
2021/06/12 02:34:40;;;;;;;15.40;14.38;;;15.50;99.90;;;16.36;83.77;98176.19;5224149;28;20228;-60
2021/06/12 02:37:13;;;;;;;15.57;14.38;;;15.40;99.90;;;16.37;83.34;98174.53;5225119;28;20264;-59
2021/06/12 02:39:45;;;;;;;16.15;14.85;;;15.30;99.90;;;16.31;83.42;98167.41;5213843;28;20200;-61
2021/06/12 02:42:19;;;;;;;16.05;14.75;;;15.30;99.90;;;16.27;85.06;98172.38;5220106;28;20203;-61
2021/06/12 02:44:52;;;;;;;17.02;15.68;;;15.30;99.90;;;16.26;84.29;98165.47;5223845;28;20205;-60
2021/06/12 02:47:28;;;;;;;16.00;14.85;;;15.30;99.90;;;16.17;84.27;98164.28;5224897;28;20397;-61
2021/06/12 02:50:01;;;;;;;16.40;15.13;;;15.30;99.90;;;16.08;84.14;98174.25;5213465;28;20205;-61
2021/06/12 02:52:35;;;;;;;17.13;15.82;;;15.20;99.90;;;16.00;84.37;98170.47;5215239;28;20201;-61
2021/06/12 02:55:11;;;;;;;17.63;16.25;;;15.20;99.90;;;15.96;85.22;98173.72;5224257;28;20213;-60
2021/06/12 02:57:49;;;;;;;17.92;16.52;;;15.20;99.90;;;16.06;85.31;98168.13;5224372;28;20212;-60
2021/06/12 03:00:23;;;;;;;18.05;16.55;;;15.20;99.90;;;16.01;86.49;98174.78;5206789;28;20296;-61
2021/06/12 03:02:57;;;;;;;16.45;15.25;;;15.10;99.90;;;15.97;86.10;98170.34;5219762;28;20200;-61
2021/06/12 03:05:35;;;;;;;16.17;14.98;;;15.10;99.90;;;15.99;85.87;98176.41;5224285;28;20217;-60
2021/06/12 03:08:09;;;;;;;17.90;16.60;;;15.20;99.90;;;15.98;85.55;98180.69;5228832;28;20201;-59
2021/06/12 03:10:42;;;;;;;17.58;16.10;;;15.20;99.90;;;16.03;85.94;98188.63;5228675;28;20196;-62
2021/06/12 03:13:18;;;;;;;16.25;14.95;;;15.20;99.90;;;16.01;85.34;98187.69;5225930;28;20657;-62
2021/06/12 03:15:53;;;;;;;16.23;14.93;;;15.10;99.90;;;16.02;85.01;98183.41;5216930;28;20720;-61
2021/06/12 03:18:29;;;;;;;16.15;14.95;;;15.10;99.90;;;16.03;85.10;98188.63;5228497;28;20201;-61
2021/06/12 03:21:03;;;;;;;15.82;14.57;;;15.10;99.90;;;16.08;84.45;98188.81;5228529;28;20201;-62
2021/06/12 03:23:36;;;;;;;15.90;14.70;;;15.20;99.90;;;16.06;84.26;98185.31;5227367;28;20208;-61
2021/06/12 03:26:10;;;;;;;15.65;14.45;;;15.10;99.90;;;16.04;85.07;98192.97;5228337;28;20224;-61
2021/06/12 03:28:43;;;;;;;15.80;14.40;;;15.20;99.90;;;16.00;84.28;98193.66;5227452;28;20193;-61
2021/06/12 03:31:17;;;;;;;15.40;14.18;;;15.10;99.90;;;16.02;84.52;98196.28;5228451;28;20197;-62
2021/06/12 03:33:52;;;;;;;16.80;15.50;;;15.10;99.90;;;16.00;84.74;98196.25;5227307;28;20699;-61
2021/06/12 03:36:26;;;;;;;16.45;15.00;;;15.10;99.90;;;15.99;84.72;98199.63;5228134;28;20213;-62
2021/06/12 03:38:59;;;;;;;16.38;15.07;;;15.10;99.90;;;15.94;84.92;98199.47;5227801;28;20201;-61
2021/06/12 03:41:32;;;;;;;16.73;15.52;;;15.10;99.90;;;15.97;84.53;98197.00;5228253;28;20678;-61
2021/06/12 03:44:06;;;;;;;17.67;16.20;;;15.10;99.90;;;15.95;85.41;98193.47;5226679;28;20209;-61
2021/06/12 03:46:41;;;;;;;17.02;15.63;;;15.10;99.90;;;15.95;84.82;98193.47;5227927;28;20224;-62
2021/06/12 03:49:17;;;;;;;16.75;15.55;;;15.10;99.90;;;15.93;85.27;98183.91;5227748;28;20648;-61
2021/06/12 03:51:52;;;;;;;16.98;15.50;;;15.10;99.90;;;15.99;85.30;98189.31;5228046;28;20235;-61
2021/06/12 03:54:25;;;;;;;16.70;15.50;;;15.10;99.90;;;15.98;85.54;98203.91;5226751;28;20223;-61
2021/06/12 03:56:59;;;;;;;17.35;16.05;;;15.10;99.90;;;16.01;85.85;98203.16;5227748;28;20723;-61
2021/06/12 03:59:31;;;;;;;17.98;16.58;;;15.10;99.90;;;16.05;86.28;98206.72;5227390;28;20203;-61
2021/06/12 04:02:07;;;;;;;18.25;16.63;;;15.20;99.90;;;16.08;84.74;98204.28;5227451;28;20197;-61
2021/06/12 04:04:42;;;;;;;17.90;16.33;;;15.20;99.90;;;16.09;84.45;98201.78;5226666;28;20603;-61
2021/06/12 04:07:17;;;;;;;18.35;16.83;;;15.10;99.90;;;16.06;85.42;98206.81;5227564;28;20225;-61
2021/06/12 04:09:49;;;;;;;18.30;16.88;;;15.20;99.90;;;16.08;85.77;98204.28;5227273;28;20193;-61
2021/06/12 04:12:22;;;;;;;17.55;15.95;;;15.30;99.90;;;16.13;85.16;98203.66;5227420;28;20215;-62
2021/06/12 04:14:54;;;;;;;16.15;14.95;;;15.30;99.90;;;16.17;84.38;98205.56;5226195;28;20217;-61
2021/06/12 04:17:27;;;;;;;16.95;15.65;;;15.30;99.90;;;16.24;83.71;98213.53;5227178;28;20586;-62
2021/06/12 04:20:01;;;;;;;16.58;15.27;;;15.30;99.90;;;16.25;83.79;98210.13;5227309;28;20197;-62
2021/06/12 04:22:34;;;;;;;15.85;14.55;;;15.30;99.90;;;16.37;83.09;98208.06;5226848;28;20665;-61
2021/06/12 04:25:08;;;;;;;16.73;15.43;;;15.30;99.90;;;16.29;83.08;98206.88;5226589;28;20212;-61
2021/06/12 04:27:41;;;;;;;15.98;14.77;;;15.30;99.90;;;16.29;84.40;98209.44;5226666;28;20193;-61
2021/06/12 04:30:19;;;;;;;16.17;14.98;;;15.40;99.90;;;16.36;83.54;98211.44;5206562;28;20204;-62
2021/06/12 04:33:03;;;;;;;17.48;16.17;;;15.40;99.90;;;16.46;84.27;98207.53;5216169;28;20727;-62
2021/06/12 04:35:37;;;;;;;17.60;16.10;;;15.60;99.90;;;16.53;84.06;98205.25;5227336;28;20631;-61
2021/06/12 04:38:10;;;;;;;16.88;15.60;;;15.60;99.90;;;16.57;84.56;98201.97;5225856;28;20654;-61
2021/06/12 04:40:43;;;;;;;17.23;15.93;;;15.70;99.90;;;16.64;83.68;98203.97;5226973;28;20204;-62
2021/06/12 04:43:15;;;;;;;17.13;15.68;;;15.80;99.90;;;16.68;83.38;98207.53;5225939;28;20193;-62
2021/06/12 04:45:48;;;;;;;17.83;16.40;;;15.80;99.90;;;16.70;83.10;98210.19;5226424;28;20213;-62
2021/06/12 04:48:20;;;;;;;17.67;16.27;;;15.80;99.90;;;16.85;81.33;98210.78;5226625;28;20189;-62
2021/06/12 04:50:54;;;;;;;16.85;15.55;;;15.80;99.90;;;16.88;81.82;98213.50;5215176;28;20292;-61
2021/06/12 04:53:30;;;;;;;17.13;15.93;;;15.90;99.90;;;17.07;81.92;98207.31;5217334;28;20639;-61
2021/06/12 04:56:03;;;;;;;18.05;16.55;;;16.10;99.90;;;17.35;81.31;98214.38;5212833;28;20316;-61
2021/06/12 04:58:35;;;;;;;16.33;15.10;;;16.40;99.90;;;17.61;80.04;98214.44;5217093;28;20193;-62
2021/06/12 05:01:08;;;;;;;16.35;15.15;;;16.60;99.90;;;17.92;79.64;98206.94;5226268;28;20201;-61
2021/06/12 05:03:40;;;;;;;16.95;15.75;;;16.90;99.90;;;18.18;77.15;98204.34;5218093;28;20197;-62
2021/06/12 05:06:14;;;;;;;16.30;15.15;;;17.00;99.90;;;18.30;75.49;98199.53;5217592;28;20232;-61
2021/06/12 05:08:47;;;;;;;16.40;14.98;;;17.10;99.90;;;18.37;76.21;98196.34;5211296;28;20688;-60
2021/06/12 05:11:20;;;;;;;16.45;15.25;;;17.20;99.90;;;18.74;75.58;98202.66;5226593;28;20669;-62
2021/06/12 05:13:52;;;;;;;15.55;14.38;;;17.60;99.90;;;19.05;74.30;98206.19;5223512;28;20568;-61
2021/06/12 05:16:25;;;;;;;16.23;15.02;;;17.90;99.90;;;19.36;72.13;98203.63;5226486;28;20235;-62
2021/06/12 05:18:57;;;;;;;15.27;14.18;;;18.20;99.90;;;19.90;71.01;98205.09;5225106;28;20196;-62
2021/06/12 05:21:34;;;;;;;14.98;13.82;;;18.50;99.90;;;20.37;69.78;98196.72;5226160;28;20296;-62
2021/06/12 05:24:08;;;;;;;15.07;13.88;;;18.90;99.90;;;20.73;68.09;98201.94;5222926;28;20575;-62
2021/06/12 05:26:41;;;;;;;14.73;13.52;;;19.20;99.90;;;21.02;66.74;98205.16;5226291;28;20221;-62
2021/06/12 05:29:13;;;;;;;14.25;13.25;;;19.50;99.90;;;21.38;65.61;98209.41;5213513;28;20569;-62
2021/06/12 05:31:46;;;;;;;14.52;13.52;;;19.70;99.90;;;21.57;64.96;98211.50;5225845;28;20579;-61
2021/06/12 05:34:19;;;;;;;13.43;12.43;;;19.70;99.90;;;21.67;64.22;98201.28;5223760;28;20255;-62
2021/06/12 05:36:53;;;;;;;13.60;12.52;;;19.60;99.90;;;21.72;64.38;98200.53;5224200;28;20217;-62
2021/06/12 05:39:25;;;;;;;14.02;12.93;;;19.60;99.90;;;21.67;64.28;98196.09;5225496;28;20196;-62
2021/06/12 05:41:58;;;;;;;14.52;13.38;;;19.60;99.90;;;21.71;64.44;98195.28;5224072;28;20620;-65
2021/06/12 05:44:31;;;;;;;14.60;13.48;;;19.60;99.90;;;21.69;63.68;98200.47;5222404;28;20201;-62
2021/06/12 05:47:04;;;;;;;14.55;13.35;;;19.60;99.90;;;21.49;64.32;98197.50;5225830;28;20229;-62
2021/06/12 05:49:37;;;;;;;14.25;13.15;;;19.50;99.90;;;21.45;64.72;98200.88;5225608;28;20276;-62
2021/06/12 05:52:11;;;;;;;14.18;13.10;;;19.60;99.90;;;21.52;65.40;98200.16;5226060;28;20201;-62
2021/06/12 05:54:43;;;;;;;14.55;13.52;;;19.80;99.90;;;21.63;66.25;98197.72;5224098;28;20217;-62
2021/06/12 05:57:16;;;;;;;13.88;12.77;;;19.90;99.90;;;21.94;65.54;98191.34;5218726;28;20705;-62
2021/06/12 05:59:48;;;;;;;13.88;12.90;;;20.10;99.90;;;22.16;64.71;98187.41;5213068;28;20201;-62
2021/06/12 06:02:21;;;;;;;14.05;13.05;;;20.40;99.90;;;22.62;62.67;98190.75;5225474;28;20197;-62
2021/06/12 06:04:54;;;;;;;13.77;12.77;;;20.70;99.90;;;22.91;61.23;98193.75;5224162;28;20695;-62
2021/06/12 06:07:28;;;;;;;14.45;13.38;;;21.00;99.90;;;22.87;61.94;98194.56;5218669;28;20213;-62
2021/06/12 06:10:01;;;;;;;14.43;13.27;;;21.00;99.90;;;23.09;60.40;98194.88;5220583;28;20341;-62
2021/06/12 06:12:35;;;;;;;14.25;13.25;;;21.20;99.90;;;23.31;60.39;98193.41;5220843;28;20198;-62
2021/06/12 06:15:11;;;;;;;14.27;13.27;;;21.50;99.90;;;23.75;59.43;98188.72;5224135;28;20223;-62
2021/06/12 06:17:44;;;;;;;13.90;12.90;;;21.70;99.90;;;24.05;57.37;98180.28;5218271;28;20221;-62
2021/06/12 06:20:16;;;;;;;12.80;11.80;;;21.90;99.90;;;24.77;56.07;98184.31;5219129;28;20201;-60
2021/06/12 06:22:50;;;;;;;12.82;11.85;;;22.30;99.90;;;25.28;55.15;98188.09;5223330;28;20196;-62
2021/06/12 06:25:24;;;;;;;12.63;11.60;;;22.80;99.90;;;25.31;54.12;98193.34;5225148;28;20604;-62
2021/06/12 06:27:56;;;;;;;12.35;11.45;;;23.10;99.90;;;25.98;51.20;98177.84;5224636;28;20203;-62
2021/06/12 06:30:29;;;;;;;11.25;10.45;;;23.30;99.90;;;26.03;50.30;98177.81;5223822;28;20656;-62
2021/06/12 06:33:02;;;;;;;11.63;10.82;;;23.40;99.90;;;26.11;50.79;98183.06;5223950;28;20582;-62
2021/06/12 06:35:35;;;;;;;12.27;11.48;;;23.40;99.90;;;25.72;52.57;98189.97;5225027;28;20744;-62
2021/06/12 06:38:09;;;;;;;11.85;11.05;;;23.50;99.90;;;26.36;50.84;98187.44;5228324;28;20203;-63
2021/06/12 06:40:41;;;;;;;12.50;11.55;;;23.70;99.90;;;27.05;48.63;98194.34;5227135;28;20724;-64
2021/06/12 06:43:14;;;;;;;11.43;10.43;;;24.40;99.90;;;27.52;46.89;98188.00;5227893;28;20246;-64
2021/06/12 06:45:47;;;;;;;10.75;10.02;;;24.80;99.90;;;27.84;46.19;98188.75;5222185;28;20299;-65
2021/06/12 06:48:20;;;;;;;10.60;9.90;;;25.00;99.90;;;28.06;44.47;98183.31;5227366;28;20207;-64
2021/06/12 06:50:52;;;;;;;9.68;9.07;;;25.00;99.90;;;28.18;44.25;98179.72;5227468;28;20199;-65
2021/06/12 06:53:32;;;;;;;10.38;9.68;;;25.20;99.90;;;28.39;43.15;98186.56;5227730;28;20610;-63
2021/06/12 06:56:07;;;;;;;9.80;9.20;;;25.40;99.70;;;28.69;43.03;98178.41;5227985;28;20251;-64
2021/06/12 06:58:39;;;;;;;10.50;9.70;;;25.90;99.40;;;29.02;42.67;98193.88;5228144;28;20196;-63
2021/06/12 07:01:13;;;;;;;10.82;10.02;;;26.20;98.90;;;29.18;41.76;98193.66;5228068;28;20211;-63
2021/06/12 07:03:45;;;;;;;9.75;9.15;;;26.30;98.50;;;29.39;41.30;98194.31;5227208;28;20679;-62
2021/06/12 07:06:22;;;;;;;10.27;9.45;;;26.30;98.30;;;29.06;42.60;98204.34;5228241;28;20267;-63
2021/06/12 07:08:56;;;;;;;8.85;8.25;;;26.30;98.80;;;29.38;41.28;98195.19;5227259;28;20201;-63
2021/06/12 07:11:29;;;;;;;8.93;8.13;;;26.40;97.90;;;29.44;41.49;98194.25;5228314;28;20200;-64
2021/06/12 07:14:01;;;;;;;9.07;8.48;;;26.50;98.20;;;29.49;41.68;98193.28;5227187;28;20207;-64
2021/06/12 07:16:34;;;;;;;9.18;8.48;;;26.60;97.90;;;29.71;41.52;98183.38;5227602;28;20314;-64
2021/06/12 07:19:07;;;;;;;9.32;8.73;;;26.60;98.10;;;29.89;41.34;98184.84;5226443;28;20197;-63
2021/06/12 07:21:39;;;;;;;9.00;8.40;;;26.80;97.50;;;30.17;40.55;98187.94;5227949;28;20637;-61
2021/06/12 07:24:13;;;;;;;8.90;8.30;;;27.10;97.10;;;30.47;40.38;98189.19;5227053;28;20192;-64
2021/06/12 07:26:46;;;;;;;8.95;8.38;;;27.20;97.00;;;30.67;39.83;98187.97;5227863;28;20227;-64
2021/06/12 07:29:18;;;;;;;8.50;7.90;;;27.80;96.30;;;30.77;39.33;98189.56;5226803;28;20284;-64
2021/06/12 07:31:52;;;;;;;8.57;8.07;;;28.00;95.40;;;30.97;39.43;98190.06;5221626;28;20203;-64
2021/06/12 07:34:24;;;;;;;9.45;8.75;;;28.20;95.80;;;30.98;39.23;98194.44;5226047;28;20201;-64
2021/06/12 07:36:57;;;;;;;8.68;8.07;;;28.20;95.40;;;30.92;39.07;98188.44;5225170;28;20616;-64
2021/06/12 07:39:31;;;;;;;8.45;7.80;;;28.20;95.20;;;31.19;38.81;98187.88;5218793;28;20653;-65
2021/06/12 07:42:04;;;;;;;7.72;7.22;;;28.40;95.00;;;30.96;39.40;98185.72;5220026;28;20202;-65
2021/06/12 07:44:37;;;;;;;7.68;7.18;;;28.30;95.10;;;30.90;39.22;98192.84;5216314;28;20223;-63
2021/06/12 07:47:10;;;;;;;9.80;8.82;;;27.90;95.50;;;30.73;39.54;98186.13;5223011;28;20271;-63
2021/06/12 07:49:43;;;;;;;8.55;7.95;;;27.80;95.50;;;30.59;40.13;98181.97;5224576;28;20201;-62
2021/06/12 07:52:15;;;;;;;8.15;7.55;;;27.50;96.20;;;30.76;40.31;98187.78;5225522;28;20200;-64
2021/06/12 07:54:49;;;;;;;7.53;6.93;;;27.90;96.30;;;31.38;39.06;98176.94;5214735;28;20197;-63
2021/06/12 07:57:22;;;;;;;6.93;6.53;;;28.60;95.10;;;31.94;36.95;98182.78;5215177;28;20217;-64
2021/06/12 07:59:54;;;;;;;6.60;6.20;;;28.90;93.60;;;32.10;36.65;98185.91;5223010;28;20202;-64
2021/06/12 08:02:28;;;;;;;6.53;6.13;;;29.00;93.20;;;32.21;36.09;98188.28;5224441;28;20204;-64
2021/06/12 08:05:01;;;;;;;6.97;6.47;;;29.00;92.80;;;32.38;36.35;98175.50;5225465;28;20224;-64
2021/06/12 08:07:34;;;;;;;7.40;6.78;;;29.30;92.80;;;32.46;35.44;98175.34;5227007;28;20200;-64
2021/06/12 08:10:09;;;;;;;6.93;6.40;;;29.20;92.30;;;32.31;36.15;98182.75;5226180;28;20212;-64
2021/06/12 08:12:42;;;;;;;6.60;6.20;;;29.10;92.80;;;32.49;35.61;98175.28;5225944;28;20207;-64
2021/06/12 08:15:16;;;;;;;7.55;6.95;;;29.10;92.20;;;32.69;35.32;98175.59;5217917;28;20287;-64
2021/06/12 08:17:48;;;;;;;7.55;7.00;;;29.40;92.10;;;32.58;35.21;98169.72;5226014;28;20189;-64
